Aviation Digital Data Service (ADDS)

Output produced by METARs form (2318 UTC 18 August 2019)
found at http://www.aviationweather.gov/metar/data/
 
Forecast for: DNMA (MAIDUGURI , NG)
Text: TAF DNMA 181700Z 1818/1924 28010KT 9999 TS BKN013 FEW020CB
Forecast period: 1800 UTC 18 August 2019 to 0000 UTC 19 August 2019
Forecast type: FROM: standard forecast or significant change
Winds: from the W (280 degrees) at 12 MPH (10 knots; 5.1 m/s)
Visibility: 6 or more miles 10+ km)
Ceiling: 1300 feet AGL
Clouds: broken clouds at 1300 feet AGL
few clouds at 2000 feet AGL
Weather: TS  (thunderstorm)
Text: TEMPO 1818/1824 09015G30KT 5000 TSRA BKN012 FEW019CB
Forecast period: 1800 UTC 18 August 2019 to 0000 UTC 19 August 2019
Forecast type: TEMPORARY: The following changes expected for less than half the time period
Winds: from the E (90 degrees) at 17 MPH (15 knots; 7.7 m/s)
gusting to 34 MPH (30 knots; 15.4 m/s)
Visibility: 3 miles (5 km)
Ceiling: 1200 feet AGL
Clouds: broken clouds at 1200 feet AGL
few clouds at 1900 feet AGL
Weather: TSRA  (rain associated with thunderstorm(s))
Text: BECMG 1900/1902 9999 NSW SCT010
Forecast period: 0000 UTC 19 August 2019 to 0000 UTC 20 August 2019
Forecast type: BECOMING: Conditions expected to become as follows by 0200 UTC 19 August 2019
Winds: from the W (280 degrees) at 12 MPH (10 knots; 5.1 m/s)
Visibility: 6 or more miles 10+ km)
Ceiling: at least 12,000 feet AGL
Clouds: scattered clouds at 1000 feet AGL
Weather: NSW  (no significant weather)